Time;durP1;ratioP1;P1;durP2;ratioP2;P2;SDS_P1;SDS_P2;PMS_P1;PMS_P2;Temp;Humidity;BMP_temperature;BMP_pressure;BME280_temperature;BME280_humidity;BME280_pressure;Samples;Min_cycle;Max_cycle;Signal;HPM_P1;HPM_P2
2023/09/03 00:00:48;;;;;;;;;;;;;;;;;;5153238;27;1905;-71
2023/09/03 00:03:14;;;;;;;;;;;;;;;;;;5134916;27;879;-71
2023/09/03 00:05:46;;;;;;;;;;;;;;;;;;5135478;27;1496;-71
2023/09/03 00:08:11;;;;;;;;;;;;;;;;;;5153920;27;942;-71
2023/09/03 00:10:37;;;;;;;;;;;;;;;;;;5152943;27;903;-71
2023/09/03 00:13:03;;;;;;;;;;;;;;;;;;5134575;27;867;-71
2023/09/03 00:15:28;;;;;;;;;;;;;;;;;;5134959;27;883;-71
2023/09/03 00:17:54;;;;;;;;;;;;;;;;;;5134882;27;1257;-71
2023/09/03 00:20:19;;;;;;;;;;;;;;;;;;5153502;27;1897;-71
2023/09/03 00:22:44;;;;;;;;;;;;;;;;;;5140308;27;871;-71
2023/09/03 00:25:09;;;;;;;;;;;;;;;;;;5142030;27;837;-71
2023/09/03 00:27:35;;;;;;;;;;;;;;;;;;5160212;27;1017;-71
2023/09/03 00:30:00;;;;;;;;;;;;;;;;;;5159975;27;1083;-71
2023/09/03 00:32:25;;;;;;;;;;;;;;;;;;5159453;27;854;-71
2023/09/03 00:34:51;;;;;;;;;;;;;;;;;;5141581;27;864;-71
2023/09/03 00:37:16;;;;;;;;;;;;;;;;;;5160309;27;1002;-71
2023/09/03 00:39:42;;;;;;;;;;;;;;;;;;5159922;27;1913;-71
2023/09/03 00:42:07;;;;;;;;;;;;;;;;;;5141951;27;906;-71
2023/09/03 00:44:32;;;;;;;;;;;;;;;;;;5159715;27;840;-71
2023/09/03 00:46:58;;;;;;;;;;;;;;;;;;5160035;27;966;-71
2023/09/03 00:49:24;;;;;;;;;;;;;;;;;;5141178;27;1189;-71
2023/09/03 00:51:51;;;;;;;;;;;;;;;;;;5159844;27;921;-71
2023/09/03 00:54:16;;;;;;;;;;;;;;;;;;5141320;27;1205;-71
2023/09/03 00:56:41;;;;;;;;;;;;;;;;;;5141180;27;1026;-71
2023/09/03 00:59:08;;;;;;;;;;;;;;;;;;5159899;27;1901;-71
2023/09/03 01:01:33;;;;;;;;;;;;;;;;;;5141138;27;1362;-71
2023/09/03 01:03:58;;;;;;;;;;;;;;;;;;5141849;27;876;-70
2023/09/03 01:06:25;;;;;;;;;;;;;;;;;;5159788;27;926;-71
2023/09/03 01:08:50;;;;;;;;;;;;;;;;;;5160086;27;781;-71
2023/09/03 01:11:16;;;;;;;;;;;;;;;;;;5140978;27;1053;-71
2023/09/03 01:14:00;;;;;;;;;;;;;;;;;;5159956;27;887;-71
2023/09/03 01:16:27;;;;;;;;;;;;;;;;;;5159924;27;867;-71
2023/09/03 01:18:55;;;;;;;;;;;;;;;;;;5142296;27;1966;-71
2023/09/03 01:21:29;;;;;;;;;;;;;;;;;;5160221;27;946;-71
2023/09/03 01:23:54;;;;;;;;;;;;;;;;;;5141503;27;1325;-71
2023/09/03 01:26:20;;;;;;;;;;;;;;;;;;5160464;27;871;-71
2023/09/03 01:28:46;;;;;;;;;;;;;;;;;;5160141;27;1208;-70
2023/09/03 01:31:14;;;;;;;;;;;;;;;;;;5141605;27;1346;-71
2023/09/03 01:33:41;;;;;;;;;;;;;;;;;;5157682;27;888;-71
2023/09/03 01:36:06;;;;;;;;;;;;;;;;;;5137849;27;1303;-71
2023/09/03 01:38:38;;;;;;;;;;;;;;;;;;5156421;27;823;-71
2023/09/03 01:41:04;;;;;;;;;;;;;;;;;;5156359;27;1969;-71
2023/09/03 01:43:29;;;;;;;;;;;;;;;;;;5155998;27;958;-70
2023/09/03 01:46:00;;;;;;;;;;;;;;;;;;5155830;27;989;-71
2023/09/03 01:48:35;;;;;;;;;;;;;;;;;;5137117;27;1379;-71
2023/09/03 01:51:26;;;;;;;;;;;;;;;;;;5155936;27;911;-71
2023/09/03 01:53:55;;;;;;;;;;;;;;;;;;5138021;27;1221;-71
2023/09/03 01:56:21;;;;;;;;;;;;;;;;;;5155996;27;998;-71
2023/09/03 01:58:48;;;;;;;;;;;;;;;;;;5156146;27;930;-71
2023/09/03 02:01:15;;;;;;;;;;;;;;;;;;5137529;27;1306;-70
2023/09/03 02:03:42;;;;;;;;;;;;;;;;;;5155458;27;1001;-71
2023/09/03 02:06:08;;;;;;;;;;;;;;;;;;5155708;27;911;-71
2023/09/03 02:08:33;;;;;;;;;;;;;;;;;;5136574;27;1154;-71
2023/09/03 02:10:58;;;;;;;;;;;;;;;;;;5155979;27;915;-71
2023/09/03 02:13:23;;;;;;;;;;;;;;;;;;5155819;27;867;-71
2023/09/03 02:15:48;;;;;;;;;;;;;;;;;;5155407;27;835;-70
2023/09/03 02:18:14;;;;;;;;;;;;;;;;;;5136970;27;1197;-71
2023/09/03 02:20:39;;;;;;;;;;;;;;;;;;5136257;27;1889;-71
2023/09/03 02:23:05;;;;;;;;;;;;;;;;;;5136518;27;1297;-71
2023/09/03 02:25:30;;;;;;;;;;;;;;;;;;5137050;27;1293;-71
2023/09/03 02:27:55;;;;;;;;;;;;;;;;;;5155507;27;875;-71
2023/09/03 02:30:20;;;;;;;;;;;;;;;;;;5136483;27;1261;-71
2023/09/03 02:32:46;;;;;;;;;;;;;;;;;;5136666;27;1393;-71
2023/09/03 02:35:11;;;;;;;;;;;;;;;;;;5137071;27;1333;-71
2023/09/03 02:37:36;;;;;;;;;;;;;;;;;;5136112;27;1309;-71
2023/09/03 02:40:02;;;;;;;;;;;;;;;;;;5136610;27;2038;-71
2023/09/03 02:42:27;;;;;;;;;;;;;;;;;;5154802;27;926;-71
2023/09/03 02:44:53;;;;;;;;;;;;;;;;;;5154470;27;765;-71
2023/09/03 02:47:18;;;;;;;;;;;;;;;;;;5136158;27;824;-71
2023/09/03 02:49:43;;;;;;;;;;;;;;;;;;5119637;27;1395;-71
2023/09/03 02:52:08;;;;;;;;;;;;;;;;;;5119205;27;1219;-71
2023/09/03 02:54:36;;;;;;;;;;;;;;;;;;5154668;27;769;-71
2023/09/03 02:57:01;;;;;;;;;;;;;;;;;;5119150;27;1214;-71
2023/09/03 02:59:28;;;;;;;;;;;;;;;;;;5154628;27;1941;-71
2023/09/03 03:01:54;;;;;;;;;;;;;;;;;;5136042;27;883;-69
2023/09/03 03:04:20;;;;;;;;;;;;;;;;;;5154602;27;792;-71
2023/09/03 03:06:45;;;;;;;;;;;;;;;;;;5154661;27;875;-71
2023/09/03 03:09:10;;;;;;;;;;;;;;;;;;5154368;27;977;-71
2023/09/03 03:11:35;;;;;;;;;;;;;;;;;;5118625;27;1307;-71
2023/09/03 03:14:01;;;;;;;;;;;;;;;;;;5154543;27;1009;-71
2023/09/03 03:16:26;;;;;;;;;;;;;;;;;;5153971;27;950;-71
2023/09/03 03:18:52;;;;;;;;;;;;;;;;;;5155628;27;1901;-71
2023/09/03 03:21:19;;;;;;;;;;;;;;;;;;5154982;27;879;-71
2023/09/03 03:23:48;;;;;;;;;;;;;;;;;;5155131;27;855;-70
2023/09/03 03:26:13;;;;;;;;;;;;;;;;;;5155732;27;816;-71
2023/09/03 03:28:38;;;;;;;;;;;;;;;;;;5136393;27;1240;-71
2023/09/03 03:31:10;;;;;;;;;;;;;;;;;;5155133;27;851;-71
2023/09/03 03:33:36;;;;;;;;;;;;;;;;;;5155453;27;879;-71
2023/09/03 03:36:01;;;;;;;;;;;;;;;;;;5155226;27;949;-71
2023/09/03 03:38:26;;;;;;;;;;;;;;;;;;5136692;27;829;-71
2023/09/03 03:40:52;;;;;;;;;;;;;;;;;;5155553;27;1980;-71
2023/09/03 03:43:17;;;;;;;;;;;;;;;;;;5136566;27;903;-71
2023/09/03 03:45:42;;;;;;;;;;;;;;;;;;5154766;27;911;-71
2023/09/03 03:48:07;;;;;;;;;;;;;;;;;;5119802;27;1274;-71
2023/09/03 03:50:33;;;;;;;;;;;;;;;;;;5154559;27;869;-71
2023/09/03 03:52:58;;;;;;;;;;;;;;;;;;5136007;27;903;-72
2023/09/03 03:55:23;;;;;;;;;;;;;;;;;;5154779;27;855;-71
2023/09/03 03:57:48;;;;;;;;;;;;;;;;;;5154122;27;836;-71
2023/09/03 04:00:14;;;;;;;;;;;;;;;;;;5118473;27;1902;-71
2023/09/03 04:02:39;;;;;;;;;;;;;;;;;;5134820;27;1233;-71
2023/09/03 04:05:04;;;;;;;;;;;;;;;;;;5154074;27;840;-71
2023/09/03 04:07:29;;;;;;;;;;;;;;;;;;5117787;27;1300;-71
2023/09/03 04:09:55;;;;;;;;;;;;;;;;;;5135681;27;891;-70
2023/09/03 04:12:20;;;;;;;;;;;;;;;;;;5154390;27;1057;-70
2023/09/03 04:14:46;;;;;;;;;;;;;;;;;;5153836;27;864;-70
2023/09/03 04:17:11;;;;;;;;;;;;;;;;;;5135026;27;844;-70
2023/09/03 04:19:37;;;;;;;;;;;;;;;;;;5153521;27;1972;-70
2023/09/03 04:22:02;;;;;;;;;;;;;;;;;;5134718;27;1512;-70
2023/09/03 04:24:27;;;;;;;;;;;;;;;;;;5153746;27;1003;-70
2023/09/03 04:26:53;;;;;;;;;;;;;;;;;;5153859;27;848;-70
2023/09/03 04:29:18;;;;;;;;;;;;;;;;;;5135013;27;1676;-70
2023/09/03 04:31:43;;;;;;;;;;;;;;;;;;5153647;27;843;-70
2023/09/03 04:34:09;;;;;;;;;;;;;;;;;;5135698;27;1340;-70
2023/09/03 04:36:34;;;;;;;;;;;;;;;;;;5135088;27;1023;-70
2023/09/03 04:39:00;;;;;;;;;;;;;;;;;;5153384;27;1969;-69
2023/09/03 04:41:26;;;;;;;;;;;;;;;;;;5134876;27;1209;-69
2023/09/03 04:44:04;;;;;;;;;;;;;;;;;;5154249;27;828;-70
2023/09/03 04:46:29;;;;;;;;;;;;;;;;;;5153845;27;927;-70
2023/09/03 04:48:54;;;;;;;;;;;;;;;;;;5135646;27;1146;-70
2023/09/03 04:51:20;;;;;;;;;;;;;;;;;;5154103;27;970;-70
2023/09/03 04:53:46;;;;;;;;;;;;;;;;;;5156308;27;867;-70
2023/09/03 04:56:12;;;;;;;;;;;;;;;;;;5138726;27;1315;-70
2023/09/03 04:58:37;;;;;;;;;;;;;;;;;;5156502;27;874;-70
2023/09/03 05:01:11;;;;;;;;;;;;;;;;;;5156636;27;1901;-70
2023/09/03 05:03:36;;;;;;;;;;;;;;;;;;5138016;27;1252;-70
2023/09/03 05:06:01;;;;;;;;;;;;;;;;;;5138373;27;867;-70
2023/09/03 05:08:30;;;;;;;;;;;;;;;;;;5157693;27;1001;-70
2023/09/03 05:10:55;;;;;;;;;;;;;;;;;;5143006;27;1270;-70
2023/09/03 05:13:20;;;;;;;;;;;;;;;;;;5142070;27;923;-71
2023/09/03 05:15:49;;;;;;;;;;;;;;;;;;5163471;27;932;-70
2023/09/03 05:18:14;;;;;;;;;;;;;;;;;;5163477;27;1061;-69
2023/09/03 05:20:39;;;;;;;;;;;;;;;;;;5151128;27;1958;-70
2023/09/03 05:23:05;;;;;;;;;;;;;;;;;;5124132;27;1073;-70
2023/09/03 05:25:30;;;;;;;;;;;;;;;;;;5139628;27;1061;-71
2023/09/03 05:27:56;;;;;;;;;;;;;;;;;;5158091;27;916;-70
2023/09/03 05:30:22;;;;;;;;;;;;;;;;;;5139722;27;1474;-71
2023/09/03 05:32:47;;;;;;;;;;;;;;;;;;5123134;27;1098;-70
2023/09/03 05:35:13;;;;;;;;;;;;;;;;;;5158257;27;1033;-70
2023/09/03 05:37:38;;;;;;;;;;;;;;;;;;5158248;27;1021;-70
2023/09/03 05:40:04;;;;;;;;;;;;;;;;;;5158691;27;1976;-70
2023/09/03 05:42:29;;;;;;;;;;;;;;;;;;5157320;27;981;-71
2023/09/03 05:44:56;;;;;;;;;;;;;;;;;;5157716;27;1001;-70
2023/09/03 05:47:21;;;;;;;;;;;;;;;;;;5138752;27;884;-71
2023/09/03 05:49:47;;;;;;;;;;;;;;;;;;5156888;27;843;-71
2023/09/03 05:52:12;;;;;;;;;;;;;;;;;;5156739;27;899;-71
2023/09/03 05:54:38;;;;;;;;;;;;;;;;;;5137891;27;824;-71
2023/09/03 05:57:03;;;;;;;;;;;;;;;;;;5156874;27;844;-71
2023/09/03 05:59:29;;;;;;;;;;;;;;;;;;5137387;27;1968;-70
2023/09/03 06:01:54;;;;;;;;;;;;;;;;;;5138399;27;1171;-71
2023/09/03 06:04:19;;;;;;;;;;;;;;;;;;5156234;27;906;-70
2023/09/03 06:06:45;;;;;;;;;;;;;;;;;;5155295;27;902;-70
2023/09/03 06:09:10;;;;;;;;;;;;;;;;;;5136875;27;1248;-70
2023/09/03 06:11:35;;;;;;;;;;;;;;;;;;5156131;27;974;-69
2023/09/03 06:14:01;;;;;;;;;;;;;;;;;;5156342;27;848;-70
2023/09/03 06:16:26;;;;;;;;;;;;;;;;;;5148983;27;1252;-70
2023/09/03 06:18:52;;;;;;;;;;;;;;;;;;5117052;27;1636;-70
2023/09/03 06:21:17;;;;;;;;;;;;;;;;;;5134332;27;1897;-70
2023/09/03 06:23:43;;;;;;;;;;;;;;;;;;5134968;27;875;-70
2023/09/03 06:26:08;;;;;;;;;;;;;;;;;;5117071;27;832;-70
2023/09/03 06:28:33;;;;;;;;;;;;;;;;;;5115597;27;1225;-70
2023/09/03 06:31:00;;;;;;;;;;;;;;;;;;5116856;27;889;-69
2023/09/03 06:33:25;;;;;;;;;;;;;;;;;;5134646;27;876;-69
2023/09/03 06:35:50;;;;;;;;;;;;;;;;;;5134520;27;911;-69
2023/09/03 06:38:15;;;;;;;;;;;;;;;;;;5135035;27;899;-70
2023/09/03 06:40:41;;;;;;;;;;;;;;;;;;5115795;27;1913;-70
2023/09/03 06:43:06;;;;;;;;;;;;;;;;;;5134870;27;985;-70
2023/09/03 06:45:32;;;;;;;;;;;;;;;;;;5134555;27;856;-70
2023/09/03 06:47:58;;;;;;;;;;;;;;;;;;5115887;27;1476;-69
2023/09/03 06:50:23;;;;;;;;;;;;;;;;;;5115945;27;899;-69
2023/09/03 06:52:48;;;;;;;;;;;;;;;;;;5116154;27;1249;-69
2023/09/03 06:55:14;;;;;;;;;;;;;;;;;;5134884;27;869;-70
2023/09/03 06:57:39;;;;;;;;;;;;;;;;;;5134318;27;914;-69
2023/09/03 07:00:06;;;;;;;;;;;;;;;;;;5134462;27;1893;-69
2023/09/03 07:02:31;;;;;;;;;;;;;;;;;;5115856;27;946;-69
2023/09/03 07:04:59;;;;;;;;;;;;;;;;;;5116393;27;1022;-70
2023/09/03 07:07:24;;;;;;;;;;;;;;;;;;5134950;27;903;-70
2023/09/03 07:09:50;;;;;;;;;;;;;;;;;;5116874;27;1026;-70
2023/09/03 07:12:15;;;;;;;;;;;;;;;;;;5135159;27;924;-69
2023/09/03 07:14:40;;;;;;;;;;;;;;;;;;5117236;27;876;-64
2023/09/03 07:17:05;;;;;;;;;;;;;;;;;;5135192;27;832;-68
2023/09/03 07:19:31;;;;;;;;;;;;;;;;;;5133311;27;1983;-68
2023/09/03 07:21:57;;;;;;;;;;;;;;;;;;5134448;27;844;-67
2023/09/03 07:24:23;;;;;;;;;;;;;;;;;;5133626;27;982;-68
2023/09/03 07:26:48;;;;;;;;;;;;;;;;;;5115208;27;891;-68
2023/09/03 07:29:14;;;;;;;;;;;;;;;;;;5133473;27;1057;-67
2023/09/03 07:31:43;;;;;;;;;;;;;;;;;;5132889;27;844;-68
2023/09/03 07:34:12;;;;;;;;;;;;;;;;;;5115255;27;1281;-68
2023/09/03 07:36:37;;;;;;;;;;;;;;;;;;5114641;27;1138;-68
2023/09/03 07:39:06;;;;;;;;;;;;;;;;;;5114728;27;1963;-68
2023/09/03 07:41:35;;;;;;;;;;;;;;;;;;5133531;27;848;-68
2023/09/03 07:44:00;;;;;;;;;;;;;;;;;;5133895;27;864;-67
2023/09/03 07:46:26;;;;;;;;;;;;;;;;;;5114871;27;1368;-68
2023/09/03 07:48:51;;;;;;;;;;;;;;;;;;5132999;27;820;-67
2023/09/03 07:51:19;;;;;;;;;;;;;;;;;;5115549;27;974;-67
2023/09/03 07:53:44;;;;;;;;;;;;;;;;;;5115038;27;1257;-67
2023/09/03 07:56:09;;;;;;;;;;;;;;;;;;5114997;27;868;-67
2023/09/03 07:58:34;;;;;;;;;;;;;;;;;;5132788;27;986;-67
2023/09/03 08:01:00;;;;;;;;;;;;;;;;;;5133509;27;1898;-68
2023/09/03 08:03:31;;;;;;;;;;;;;;;;;;5132684;27;875;-68
2023/09/03 08:05:57;;;;;;;;;;;;;;;;;;5114532;27;1182;-68
2023/09/03 08:08:22;;;;;;;;;;;;;;;;;;5114516;27;1287;-68
2023/09/03 08:10:48;;;;;;;;;;;;;;;;;;5113907;27;1371;-67
2023/09/03 08:13:13;;;;;;;;;;;;;;;;;;5114489;27;1226;-68
2023/09/03 08:15:38;;;;;;;;;;;;;;;;;;5097199;27;1572;-67
2023/09/03 08:18:03;;;;;;;;;;;;;;;;;;5114714;28;919;-67
2023/09/03 08:20:29;;;;;;;;;;;;;;;;;;5132171;27;1878;-66
2023/09/03 08:22:54;;;;;;;;;;;;;;;;;;5132985;28;805;-67
2023/09/03 08:25:19;;;;;;;;;;;;;;;;;;5132540;28;965;-67
2023/09/03 08:27:44;;;;;;;;;;;;;;;;;;5132787;28;805;-68
2023/09/03 08:30:10;;;;;;;;;;;;;;;;;;5114199;28;1130;-68
2023/09/03 08:32:35;;;;;;;;;;;;;;;;;;5132341;28;958;-68
2023/09/03 08:35:01;;;;;;;;;;;;;;;;;;5098407;28;1443;-69
2023/09/03 08:37:28;;;;;;;;;;;;;;;;;;5133318;28;903;-68
2023/09/03 08:39:53;;;;;;;;;;;;;;;;;;5114895;28;1964;-68
2023/09/03 08:42:19;;;;;;;;;;;;;;;;;;5133701;27;898;-68
2023/09/03 08:45:03;;;;;;;;;;;;;;;;;;5118569;27;831;-68
2023/09/03 08:47:29;;;;;;;;;;;;;;;;;;5136918;27;1135;-68
2023/09/03 08:49:54;;;;;;;;;;;;;;;;;;5102441;27;1187;-68
2023/09/03 08:52:19;;;;;;;;;;;;;;;;;;5118009;27;1476;-68
2023/09/03 08:54:45;;;;;;;;;;;;;;;;;;5135453;27;895;-68
2023/09/03 08:57:11;;;;;;;;;;;;;;;;;;5137016;27;998;-68
2023/09/03 08:59:37;;;;;;;;;;;;;;;;;;5135953;27;1905;-68
2023/09/03 09:02:02;;;;;;;;;;;;;;;;;;5119252;27;1413;-68
2023/09/03 09:04:29;;;;;;;;;;;;;;;;;;5118570;27;1207;-68
2023/09/03 09:06:56;;;;;;;;;;;;;;;;;;5138436;27;911;-68
2023/09/03 09:09:21;;;;;;;;;;;;;;;;;;5137267;27;919;-69
2023/09/03 09:11:50;;;;;;;;;;;;;;;;;;5136857;27;938;-68
2023/09/03 09:14:35;;;;;;;;;;;;;;;;;;5118673;27;1191;-68
2023/09/03 09:17:00;;;;;;;;;;;;;;;;;;5137156;27;907;-68
2023/09/03 09:19:26;;;;;;;;;;;;;;;;;;5136499;27;1961;-69
2023/09/03 09:21:51;;;;;;;;;;;;;;;;;;5135600;27;894;-68
2023/09/03 09:24:16;;;;;;;;;;;;;;;;;;5135941;27;997;-68
2023/09/03 09:26:42;;;;;;;;;;;;;;;;;;5135616;27;1232;-69
2023/09/03 09:29:07;;;;;;;;;;;;;;;;;;5117615;27;1355;-69
2023/09/03 09:31:33;;;;;;;;;;;;;;;;;;5135400;27;957;-69
2023/09/03 09:34:00;;;;;;;;;;;;;;;;;;5135864;27;648;-69
2023/09/03 09:36:25;;;;;;;;;;;;;;;;;;5135499;27;1008;-69
2023/09/03 09:38:51;;;;;;;;;;;;;;;;;;5135569;27;950;-70
2023/09/03 09:41:19;;;;;;;;;;;;;;;;;;5135762;27;1906;-69
2023/09/03 09:43:46;;;;;;;;;;;;;;;;;;5099924;27;1361;-69
2023/09/03 09:46:24;;;;;;;;;;;;;;;;;;5135796;27;852;-69
2023/09/03 09:48:56;;;;;;;;;;;;;;;;;;5116791;27;1155;-69
2023/09/03 09:51:22;;;;;;;;;;;;;;;;;;5135555;27;845;-69
2023/09/03 09:53:57;;;;;;;;;;;;;;;;;;5134215;27;938;-69
2023/09/03 09:56:29;;;;;;;;;;;;;;;;;;5116884;27;1281;-69
2023/09/03 09:58:57;;;;;;;;;;;;;;;;;;5135480;27;967;-69
2023/09/03 10:01:23;;;;;;;;;;;;;;;;;;5116569;27;1901;-69
2023/09/03 10:03:49;;;;;;;;;;;;;;;;;;5116301;27;1210;-68
2023/09/03 10:06:18;;;;;;;;;;;;;;;;;;5135730;27;923;-69
2023/09/03 10:08:47;;;;;;;;;;;;;;;;;;5117456;27;789;-69
2023/09/03 10:11:12;;;;;;;;;;;;;;;;;;5135782;27;852;-69
2023/09/03 10:13:39;;;;;;;;;;;;;;;;;;5135466;27;1006;-69
2023/09/03 10:16:06;;;;;;;;;;;;;;;;;;5135600;27;847;-69
2023/09/03 10:18:34;;;;;;;;;;;;;;;;;;5135200;27;1002;-69
2023/09/03 10:21:03;;;;;;;;;;;;;;;;;;5135700;27;1957;-70
2023/09/03 10:23:28;;;;;;;;;;;;;;;;;;5135758;27;903;-70
2023/09/03 10:25:54;;;;;;;;;;;;;;;;;;5117022;27;1294;-70
2023/09/03 10:28:23;;;;;;;;;;;;;;;;;;5136036;27;999;-70
2023/09/03 10:30:51;;;;;;;;;;;;;;;;;;5135227;27;1259;-70
2023/09/03 10:33:17;;;;;;;;;;;;;;;;;;5117048;27;1413;-70
2023/09/03 10:36:02;;;;;;;;;;;;;;;;;;5116488;27;912;-70
2023/09/03 10:38:31;;;;;;;;;;;;;;;;;;5135129;27;1017;-70
2023/09/03 10:41:14;;;;;;;;;;;;;;;;;;5117514;27;1979;-70
2023/09/03 10:43:39;;;;;;;;;;;;;;;;;;5134467;27;835;-70
2023/09/03 10:46:05;;;;;;;;;;;;;;;;;;5135501;27;812;-70
2023/09/03 10:48:30;;;;;;;;;;;;;;;;;;5135876;27;835;-70
2023/09/03 10:50:56;;;;;;;;;;;;;;;;;;5136860;27;832;-70
2023/09/03 10:53:40;;;;;;;;;;;;;;;;;;5139303;27;816;-70
2023/09/03 10:56:06;;;;;;;;;;;;;;;;;;5139620;27;1033;-70
2023/09/03 10:58:31;;;;;;;;;;;;;;;;;;5120853;27;1377;-70
2023/09/03 11:01:15;;;;;;;;;;;;;;;;;;5145460;27;1915;-70
2023/09/03 11:03:47;;;;;;;;;;;;;;;;;;5143349;27;998;-70
2023/09/03 11:06:17;;;;;;;;;;;;;;;;;;5143342;27;934;-70
2023/09/03 11:08:42;;;;;;;;;;;;;;;;;;5142239;27;871;-70
2023/09/03 11:11:10;;;;;;;;;;;;;;;;;;5140389;27;1018;-70
2023/09/03 11:13:35;;;;;;;;;;;;;;;;;;5142393;27;884;-71
2023/09/03 11:16:00;;;;;;;;;;;;;;;;;;5142463;27;1026;-70
2023/09/03 11:18:26;;;;;;;;;;;;;;;;;;5142100;27;959;-71
2023/09/03 11:20:52;;;;;;;;;;;;;;;;;;5141149;27;1886;-70
2023/09/03 11:23:17;;;;;;;;;;;;;;;;;;5116200;27;1165;-70
2023/09/03 11:25:43;;;;;;;;;;;;;;;;;;5115735;27;908;-70
2023/09/03 11:28:12;;;;;;;;;;;;;;;;;;5134551;27;824;-70
2023/09/03 11:30:38;;;;;;;;;;;;;;;;;;5133902;27;1258;-70
2023/09/03 11:33:03;;;;;;;;;;;;;;;;;;5115557;27;1319;-70
2023/09/03 11:35:28;;;;;;;;;;;;;;;;;;5133871;27;1001;-70
2023/09/03 11:37:54;;;;;;;;;;;;;;;;;;5114941;27;1438;-70
2023/09/03 11:40:23;;;;;;;;;;;;;;;;;;5133944;27;1959;-70
2023/09/03 11:42:50;;;;;;;;;;;;;;;;;;5133332;27;721;-70
2023/09/03 11:45:16;;;;;;;;;;;;;;;;;;5133881;27;891;-71
2023/09/03 11:47:50;;;;;;;;;;;;;;;;;;5115179;27;1198;-71
2023/09/03 11:50:16;;;;;;;;;;;;;;;;;;5134229;27;816;-71
2023/09/03 11:52:48;;;;;;;;;;;;;;;;;;5114888;27;1309;-69
2023/09/03 11:55:14;;;;;;;;;;;;;;;;;;5133744;27;844;-70
2023/09/03 11:57:42;;;;;;;;;;;;;;;;;;5114754;27;1335;-70
2023/09/03 12:00:08;;;;;;;;;;;;;;;;;;5133490;27;1894;-70
2023/09/03 12:02:33;;;;;;;;;;;;;;;;;;5132527;27;1209;-69
2023/09/03 12:04:59;;;;;;;;;;;;;;;;;;5133621;27;919;-70
2023/09/03 12:07:24;;;;;;;;;;;;;;;;;;5115131;27;919;-68
2023/09/03 12:09:52;;;;;;;;;;;;;;;;;;5114433;28;1323;-68
2023/09/03 12:12:20;;;;;;;;;;;;;;;;;;5133506;27;970;-69
2023/09/03 12:14:46;;;;;;;;;;;;;;;;;;5114364;27;1426;-70
2023/09/03 12:17:21;;;;;;;;;;;;;;;;;;5114696;28;1340;-70
2023/09/03 12:19:46;;;;;;;;;;;;;;;;;;5133039;27;1964;-70
2023/09/03 12:22:13;;;;;;;;;;;;;;;;;;5098457;28;1391;-70
2023/09/03 12:24:39;;;;;;;;;;;;;;;;;;5132609;28;851;-70
2023/09/03 12:27:04;;;;;;;;;;;;;;;;;;5133348;28;1005;-70
2023/09/03 12:29:37;;;;;;;;;;;;;;;;;;5133688;28;1156;-69
2023/09/03 12:32:03;;;;;;;;;;;;;;;;;;5133592;28;950;-69
2023/09/03 12:34:35;;;;;;;;;;;;;;;;;;5133755;28;1060;-69
2023/09/03 12:37:01;;;;;;;;;;;;;;;;;;5115239;28;1253;-70
2023/09/03 12:39:44;;;;;;;;;;;;;;;;;;5133896;28;1905;-70
2023/09/03 12:42:10;;;;;;;;;;;;;;;;;;5133441;28;812;-69
2023/09/03 12:44:35;;;;;;;;;;;;;;;;;;5113754;28;1217;-70
2023/09/03 12:47:01;;;;;;;;;;;;;;;;;;5132853;28;923;-70
2023/09/03 12:49:26;;;;;;;;;;;;;;;;;;5133196;28;816;-70
2023/09/03 12:51:52;;;;;;;;;;;;;;;;;;5132193;28;824;-70
2023/09/03 12:54:18;;;;;;;;;;;;;;;;;;5132898;28;884;-70
2023/09/03 12:56:43;;;;;;;;;;;;;;;;;;5132510;28;891;-70
2023/09/03 12:59:09;;;;;;;;;;;;;;;;;;5114096;28;1321;-70
2023/09/03 13:01:38;;;;;;;;;;;;;;;;;;5132088;28;1964;-70
2023/09/03 13:04:03;;;;;;;;;;;;;;;;;;5114090;28;982;-70
2023/09/03 13:06:29;;;;;;;;;;;;;;;;;;5114253;28;938;-70
2023/09/03 13:08:54;;;;;;;;;;;;;;;;;;5114028;28;891;-70
2023/09/03 13:11:20;;;;;;;;;;;;;;;;;;5114241;28;1576;-70
2023/09/03 13:13:49;;;;;;;;;;;;;;;;;;5132176;28;978;-70
2023/09/03 13:16:30;;;;;;;;;;;;;;;;;;5132492;28;942;-69
2023/09/03 13:18:56;;;;;;;;;;;;;;;;;;5132234;28;923;-70
2023/09/03 13:21:21;;;;;;;;;;;;;;;;;;5133177;28;1905;-70
2023/09/03 13:23:46;;;;;;;;;;;;;;;;;;5132557;28;986;-70
2023/09/03 13:26:12;;;;;;;;;;;;;;;;;;5114441;28;1203;-70
2023/09/03 13:28:37;;;;;;;;;;;;;;;;;;5113533;27;1610;-69
2023/09/03 13:31:03;;;;;;;;;;;;;;;;;;5117003;27;1305;-69
2023/09/03 13:33:29;;;;;;;;;;;;;;;;;;5136562;27;1062;-69
2023/09/03 13:35:54;;;;;;;;;;;;;;;;;;5118190;27;959;-69
2023/09/03 13:38:20;;;;;;;;;;;;;;;;;;5118349;27;1456;-69
2023/09/03 13:40:47;;;;;;;;;;;;;;;;;;5136452;27;1918;-70
2023/09/03 13:43:12;;;;;;;;;;;;;;;;;;5118346;27;908;-70
2023/09/03 13:45:38;;;;;;;;;;;;;;;;;;5136129;27;832;-69
2023/09/03 13:48:03;;;;;;;;;;;;;;;;;;5117959;27;824;-70
2023/09/03 13:50:28;;;;;;;;;;;;;;;;;;5117885;27;866;-70
2023/09/03 13:52:55;;;;;;;;;;;;;;;;;;5117474;27;1412;-70
2023/09/03 13:55:22;;;;;;;;;;;;;;;;;;5117667;27;1214;-70
2023/09/03 13:57:47;;;;;;;;;;;;;;;;;;5135750;27;1057;-70
2023/09/03 14:00:12;;;;;;;;;;;;;;;;;;5117676;27;1910;-70
2023/09/03 14:02:37;;;;;;;;;;;;;;;;;;5116931;27;915;-70
2023/09/03 14:05:03;;;;;;;;;;;;;;;;;;5134729;27;903;-70
2023/09/03 14:07:28;;;;;;;;;;;;;;;;;;5117088;27;1283;-70
2023/09/03 14:09:57;;;;;;;;;;;;;;;;;;5135622;27;840;-70
2023/09/03 14:12:24;;;;;;;;;;;;;;;;;;5135477;27;888;-70
2023/09/03 14:14:50;;;;;;;;;;;;;;;;;;5136006;27;985;-70
2023/09/03 14:17:16;;;;;;;;;;;;;;;;;;5117012;27;1345;-70
2023/09/03 14:19:41;;;;;;;;;;;;;;;;;;5116965;27;1952;-69
2023/09/03 14:22:06;;;;;;;;;;;;;;;;;;5117565;27;886;-70
2023/09/03 14:24:35;;;;;;;;;;;;;;;;;;5135629;27;974;-69
2023/09/03 14:27:01;;;;;;;;;;;;;;;;;;5135802;27;891;-70
2023/09/03 14:29:26;;;;;;;;;;;;;;;;;;5122852;27;1444;-70
2023/09/03 14:31:52;;;;;;;;;;;;;;;;;;5154397;27;824;-70
2023/09/03 14:34:20;;;;;;;;;;;;;;;;;;5155289;27;903;-70
2023/09/03 14:36:45;;;;;;;;;;;;;;;;;;5154970;27;1065;-70
2023/09/03 14:39:11;;;;;;;;;;;;;;;;;;5136366;27;851;-70
2023/09/03 14:41:36;;;;;;;;;;;;;;;;;;5155669;27;1882;-69
2023/09/03 14:44:01;;;;;;;;;;;;;;;;;;5137114;27;1174;-69
2023/09/03 14:46:27;;;;;;;;;;;;;;;;;;5155370;27;1061;-69
2023/09/03 14:48:55;;;;;;;;;;;;;;;;;;5154827;27;958;-69
2023/09/03 14:51:20;;;;;;;;;;;;;;;;;;5155286;27;903;-69
2023/09/03 14:53:46;;;;;;;;;;;;;;;;;;5154709;27;911;-69
2023/09/03 14:56:12;;;;;;;;;;;;;;;;;;5136156;27;868;-69
2023/09/03 14:58:37;;;;;;;;;;;;;;;;;;5135798;27;895;-69
2023/09/03 15:01:19;;;;;;;;;;;;;;;;;;5154891;27;1959;-69
2023/09/03 15:03:44;;;;;;;;;;;;;;;;;;5154531;27;828;-69
2023/09/03 15:06:10;;;;;;;;;;;;;;;;;;5154808;27;867;-69
2023/09/03 15:08:35;;;;;;;;;;;;;;;;;;5136345;27;1098;-70
2023/09/03 15:11:12;;;;;;;;;;;;;;;;;;5154657;27;931;-70
2023/09/03 15:13:38;;;;;;;;;;;;;;;;;;5154538;27;922;-70
2023/09/03 15:16:04;;;;;;;;;;;;;;;;;;5154775;27;930;-70
2023/09/03 15:18:29;;;;;;;;;;;;;;;;;;5136639;27;1372;-70
2023/09/03 15:20:55;;;;;;;;;;;;;;;;;;5154733;27;1870;-70
2023/09/03 15:23:20;;;;;;;;;;;;;;;;;;5136579;27;1189;-69
2023/09/03 15:25:46;;;;;;;;;;;;;;;;;;5154414;27;911;-69
2023/09/03 15:28:11;;;;;;;;;;;;;;;;;;5119434;27;1237;-69
2023/09/03 15:30:37;;;;;;;;;;;;;;;;;;5154261;27;1087;-69
2023/09/03 15:33:04;;;;;;;;;;;;;;;;;;5136294;27;1191;-69
2023/09/03 15:35:29;;;;;;;;;;;;;;;;;;5155133;27;879;-69
2023/09/03 15:37:54;;;;;;;;;;;;;;;;;;5154321;27;891;-69
2023/09/03 15:40:19;;;;;;;;;;;;;;;;;;5135997;27;1909;-69
2023/09/03 15:42:45;;;;;;;;;;;;;;;;;;5154546;27;978;-69
2023/09/03 15:45:10;;;;;;;;;;;;;;;;;;5119180;27;1225;-69
2023/09/03 15:47:35;;;;;;;;;;;;;;;;;;5142688;27;1198;-69
2023/09/03 15:50:01;;;;;;;;;;;;;;;;;;5118679;27;1146;-70
2023/09/03 15:52:26;;;;;;;;;;;;;;;;;;5138717;27;1214;-70
2023/09/03 15:54:51;;;;;;;;;;;;;;;;;;5137305;27;1162;-69
2023/09/03 15:57:17;;;;;;;;;;;;;;;;;;5154227;27;925;-69
2023/09/03 15:59:42;;;;;;;;;;;;;;;;;;5153428;27;1909;-69
2023/09/03 16:02:07;;;;;;;;;;;;;;;;;;5136040;27;1207;-69
2023/09/03 16:04:32;;;;;;;;;;;;;;;;;;5135697;27;1188;-69
2023/09/03 16:06:58;;;;;;;;;;;;;;;;;;5155141;27;827;-69
2023/09/03 16:09:23;;;;;;;;;;;;;;;;;;5126627;27;1431;-69
2023/09/03 16:11:48;;;;;;;;;;;;;;;;;;5133867;27;875;-69
2023/09/03 16:14:13;;;;;;;;;;;;;;;;;;5115613;27;856;-69
2023/09/03 16:16:39;;;;;;;;;;;;;;;;;;5134066;27;906;-68
2023/09/03 16:19:04;;;;;;;;;;;;;;;;;;5134147;27;879;-69
2023/09/03 16:21:29;;;;;;;;;;;;;;;;;;5133478;27;1953;-69
2023/09/03 16:23:54;;;;;;;;;;;;;;;;;;5114565;28;856;-70
2023/09/03 16:26:20;;;;;;;;;;;;;;;;;;5133612;28;915;-71
2023/09/03 16:28:45;;;;;;;;;;;;;;;;;;5114428;28;1221;-69
2023/09/03 16:31:11;;;;;;;;;;;;;;;;;;5115788;28;824;-70
2023/09/03 16:33:36;;;;;;;;;;;;;;;;;;5131557;28;907;-70
2023/09/03 16:36:02;;;;;;;;;;;;;;;;;;5097526;28;1298;-70
2023/09/03 16:38:27;;;;;;;;;;;;;;;;;;5116475;28;1225;-69
2023/09/03 16:40:53;;;;;;;;;;;;;;;;;;5134294;28;1967;-70
2023/09/03 16:43:19;;;;;;;;;;;;;;;;;;5118465;28;832;-69
2023/09/03 16:45:44;;;;;;;;;;;;;;;;;;5128498;28;1218;-68
2023/09/03 16:48:09;;;;;;;;;;;;;;;;;;5133622;28;1328;-69
2023/09/03 16:50:35;;;;;;;;;;;;;;;;;;5131404;28;832;-69
2023/09/03 16:53:02;;;;;;;;;;;;;;;;;;5134962;28;1026;-67
2023/09/03 16:55:28;;;;;;;;;;;;;;;;;;5151922;28;888;-68
2023/09/03 16:57:54;;;;;;;;;;;;;;;;;;5150954;28;915;-67
2023/09/03 17:00:19;;;;;;;;;;;;;;;;;;5117613;28;1890;-68
2023/09/03 17:02:44;;;;;;;;;;;;;;;;;;5111033;28;1297;-68
2023/09/03 17:05:10;;;;;;;;;;;;;;;;;;5134225;27;923;-69
2023/09/03 17:07:35;;;;;;;;;;;;;;;;;;5157086;27;1069;-69